Time;durP1;ratioP1;P1;durP2;ratioP2;P2;SDS_P1;SDS_P2;PMS_P1;PMS_P2;Temp;Humidity;BMP_temperature;BMP_pressure;BME280_temperature;BME280_humidity;BME280_pressure;Samples;Min_cycle;Max_cycle;Signal;HPM_P1;HPM_P2
2021/11/02 00:00:27;;;;;;;3.25;3.15;;;11.90;77.10;;;;;;4910816;29;20043;-83
2021/11/02 00:02:53;;;;;;;3.63;3.33;;;11.90;77.20;;;;;;4960581;28;20042;-83
2021/11/02 00:05:19;;;;;;;3.65;3.45;;;11.80;77.10;;;;;;4975012;28;20066;-84
2021/11/02 00:07:46;;;;;;;3.35;3.25;;;11.80;77.30;;;;;;4970649;28;20031;-84
2021/11/02 00:10:12;;;;;;;3.13;3.03;;;11.80;77.30;;;;;;4977619;28;20054;-84
2021/11/02 00:12:39;;;;;;;3.40;3.30;;;11.80;77.30;;;;;;4972657;28;20035;-83
2021/11/02 00:15:05;;;;;;;3.28;3.17;;;11.70;77.30;;;;;;4973356;28;20038;-83
2021/11/02 00:17:34;;;;;;;3.35;3.25;;;11.70;77.30;;;;;;4973411;28;20039;-84
2021/11/02 00:20:03;;;;;;;3.65;3.45;;;11.70;77.40;;;;;;4968318;28;20047;-84
2021/11/02 00:22:29;;;;;;;3.50;3.30;;;11.70;77.50;;;;;;4971888;28;20031;-83
2021/11/02 00:27:27;;;;;;;3.88;3.67;;;11.60;77.50;;;;;;4975381;28;20038;-84
2021/11/02 00:29:54;;;;;;;3.35;3.25;;;11.60;77.50;;;;;;4972454;28;20392;-84
2021/11/02 00:32:20;;;;;;;3.53;3.40;;;11.60;77.50;;;;;;4972462;28;20043;-83
2021/11/02 00:34:46;;;;;;;3.65;3.45;;;11.60;77.50;;;;;;4970457;28;20487;-83
2021/11/02 00:37:12;;;;;;;4.57;3.70;;;11.60;77.50;;;;;;4972899;28;20031;-83
2021/11/02 00:39:38;;;;;;;3.60;3.45;;;11.50;77.40;;;;;;4971096;28;20034;-83
2021/11/02 00:42:05;;;;;;;3.40;3.30;;;11.60;77.50;;;;;;4972554;28;20034;-84
2021/11/02 00:44:31;;;;;;;3.72;3.53;;;11.60;77.50;;;;;;4972621;28;20502;-84
2021/11/02 00:46:57;;;;;;;3.75;3.55;;;11.60;77.50;;;;;;4970214;28;20039;-82
2021/11/02 00:49:25;;;;;;;3.42;3.33;;;11.60;77.50;;;;;;4967146;28;20043;-83
2021/11/02 00:51:51;;;;;;;3.60;3.45;;;11.50;77.50;;;;;;4961818;28;20491;-83
2021/11/02 00:54:18;;;;;;;3.30;3.20;;;11.50;77.50;;;;;;4971204;28;20031;-83
2021/11/02 00:56:44;;;;;;;3.35;3.25;;;11.50;77.50;;;;;;4972897;28;20035;-83
2021/11/02 00:59:10;;;;;;;4.18;3.97;;;11.50;77.60;;;;;;4971325;28;20037;-83
2021/11/02 01:01:39;;;;;;;3.25;3.15;;;11.40;77.60;;;;;;4969955;28;20411;-83
2021/11/02 01:04:06;;;;;;;3.40;3.30;;;11.40;77.60;;;;;;4954477;28;20034;-83
2021/11/02 01:06:32;;;;;;;3.70;3.50;;;11.40;78.40;;;;;;4971226;28;20041;-83
2021/11/02 01:08:59;;;;;;;3.67;3.47;;;11.40;77.70;;;;;;4973117;28;20035;-83
2021/11/02 01:11:25;;;;;;;3.65;3.45;;;11.40;77.70;;;;;;4976801;28;20495;-83
2021/11/02 01:13:52;;;;;;;3.47;3.35;;;11.30;77.70;;;;;;4970297;28;20042;-83
2021/11/02 01:16:21;;;;;;;3.85;3.65;;;11.30;77.70;;;;;;4950901;28;20054;-83
2021/11/02 01:18:48;;;;;;;10.77;3.60;;;11.30;77.70;;;;;;4962781;28;20039;-84
2021/11/02 01:21:14;;;;;;;3.10;3.00;;;11.30;77.70;;;;;;4972547;28;20031;-84
2021/11/02 01:23:40;;;;;;;3.25;3.15;;;11.30;77.80;;;;;;4973507;28;20384;-83
2021/11/02 01:26:06;;;;;;;3.58;3.38;;;11.30;77.80;;;;;;4972976;28;20033;-83
2021/11/02 01:28:32;;;;;;;3.60;3.40;;;11.30;77.80;;;;;;4971630;28;20046;-84
2021/11/02 01:30:59;;;;;;;3.65;3.45;;;11.20;77.80;;;;;;4969935;28;20043;-82
2021/11/02 01:33:25;;;;;;;3.20;3.10;;;11.20;77.80;;;;;;4971535;28;20023;-84
2021/11/02 01:35:51;;;;;;;3.30;3.20;;;11.20;77.80;;;;;;4971823;28;20062;-84
2021/11/02 01:38:20;;;;;;;3.30;3.20;;;11.10;77.80;;;;;;4986901;28;20030;-82
2021/11/02 01:40:47;;;;;;;3.70;3.50;;;11.10;77.90;;;;;;4954509;28;20039;-83
2021/11/02 01:43:14;;;;;;;3.72;3.53;;;11.10;77.90;;;;;;4970910;28;20035;-83
2021/11/02 01:45:40;;;;;;;3.40;3.30;;;11.00;77.80;;;;;;4970332;28;20039;-83
2021/11/02 01:48:06;;;;;;;3.65;3.45;;;11.00;78.00;;;;;;4970370;28;20058;-83
2021/11/02 01:50:33;;;;;;;3.67;3.47;;;11.00;77.90;;;;;;4972523;28;20492;-83
2021/11/02 01:52:59;;;;;;;3.35;3.25;;;11.00;78.00;;;;;;4970540;28;20039;-83
2021/11/02 01:55:26;;;;;;;5.97;3.70;;;11.00;78.00;;;;;;4969950;28;20588;-83
2021/11/02 01:57:52;;;;;;;3.78;3.58;;;10.90;77.90;;;;;;4971446;28;20507;-83
2021/11/02 02:00:18;;;;;;;3.72;3.53;;;10.90;77.90;;;;;;4967247;28;20031;-83
2021/11/02 02:03:09;;;;;;;3.53;3.38;;;10.90;77.90;;;;;;4971650;28;20373;-83
2021/11/02 02:05:47;;;;;;;4.22;3.97;;;10.90;78.00;;;;;;4972126;28;20031;-83
2021/11/02 02:08:21;;;;;;;4.10;3.90;;;10.80;77.90;;;;;;4982062;28;20053;-83
2021/11/02 02:11:10;;;;;;;4.15;3.95;;;10.80;78.00;;;;;;4969478;28;20045;-83
2021/11/02 02:13:47;;;;;;;4.28;4.07;;;10.90;78.10;;;;;;4951905;28;20046;-83
2021/11/02 02:16:29;;;;;;;4.80;4.50;;;10.80;77.90;;;;;;4963540;28;20043;-83
2021/11/02 02:19:33;;;;;;;4.07;3.88;;;10.80;77.90;;;;;;4969383;28;20026;-83
2021/11/02 02:22:33;;;;;;;4.18;3.97;;;10.80;77.90;;;;;;4971698;28;20046;-83
2021/11/02 02:25:31;;;;;;;4.13;3.92;;;10.80;78.00;;;;;;4954002;28;20035;-83
2021/11/02 02:28:11;;;;;;;8.95;4.68;;;10.80;78.00;;;;;;4971808;28;20038;-84
2021/11/02 02:30:41;;;;;;;4.30;4.10;;;10.70;78.00;;;;;;4933482;28;20044;-83
2021/11/02 02:33:08;;;;;;;4.43;4.22;;;10.70;78.00;;;;;;4938831;28;20042;-83
2021/11/02 02:35:34;;;;;;;4.28;4.07;;;10.70;78.00;;;;;;4954302;28;20043;-83
2021/11/02 02:38:00;;;;;;;4.90;4.70;;;10.70;78.00;;;;;;4952424;28;20035;-83
2021/11/02 02:40:27;;;;;;;4.65;4.45;;;10.70;78.10;;;;;;4947251;29;20061;-83
2021/11/02 02:42:53;;;;;;;4.45;4.25;;;10.70;78.00;;;;;;4958891;28;20043;-83
2021/11/02 02:45:19;;;;;;;4.30;4.10;;;10.70;78.10;;;;;;4937738;28;20380;-83
2021/11/02 02:47:45;;;;;;;4.30;4.10;;;10.60;78.10;;;;;;4971611;28;20039;-83
2021/11/02 02:50:12;;;;;;;4.47;4.28;;;10.70;78.20;;;;;;4953273;28;20377;-83
2021/11/02 02:52:39;;;;;;;4.30;4.10;;;10.60;78.10;;;;;;4951046;28;20069;-83
2021/11/02 02:55:06;;;;;;;6.30;4.95;;;10.60;78.10;;;;;;4971387;28;20531;-83
2021/11/02 02:57:32;;;;;;;4.82;4.63;;;10.60;78.10;;;;;;4952413;28;20038;-83
2021/11/02 02:59:58;;;;;;;4.63;4.43;;;10.60;78.10;;;;;;4959468;28;20035;-83
2021/11/02 03:02:26;;;;;;;5.22;5.03;;;10.60;78.10;;;;;;4937908;28;20039;-83
2021/11/02 03:04:54;;;;;;;4.75;4.55;;;10.60;78.10;;;;;;4972031;28;20039;-84
2021/11/02 03:07:21;;;;;;;4.72;4.53;;;10.60;78.10;;;;;;4970025;28;20031;-83
2021/11/02 03:09:47;;;;;;;4.75;4.55;;;10.60;78.10;;;;;;4975477;28;20399;-83
2021/11/02 03:12:14;;;;;;;4.80;4.60;;;10.60;78.10;;;;;;4971452;28;20399;-83
2021/11/02 03:17:34;;;;;;;4.25;4.05;;;10.50;78.10;;;;;;4976223;28;20046;-83
2021/11/02 03:55:48;;;;;;;5.43;5.20;;;10.40;78.20;;;;;;4977839;28;20045;-85
2021/11/02 03:58:22;;;;;;;5.13;4.93;;;10.40;78.20;;;;;;4974787;28;20051;-85
2021/11/02 04:01:48;;;;;;;5.45;5.25;;;10.40;78.30;;;;;;4986700;28;20059;-85
2021/11/02 04:29:09;;;;;;;5.05;4.85;;;10.20;78.40;;;;;;4975296;28;20041;-84
2021/11/02 05:14:16;;;;;;;5.32;5.13;;;10.10;78.30;;;;;;4935718;29;20555;-84
2021/11/02 05:55:37;;;;;;;;;;;9.90;78.60;;;;;;4913446;29;20043;-85
2021/11/02 05:58:15;;;;;;;4.15;3.95;;;9.90;78.80;;;;;;4910345;29;19926;-84
2021/11/02 06:00:59;;;;;;;4.45;4.25;;;9.80;78.60;;;;;;4903885;29;20047;-86
2021/11/02 06:09:04;;;;;;;4.40;4.20;;;9.80;78.70;;;;;;4900670;29;20047;-85
2021/11/02 06:28:21;;;;;;;3.90;3.70;;;9.80;78.70;;;;;;4971393;28;20027;-83
2021/11/02 06:30:52;;;;;;;4.03;3.83;;;9.80;78.60;;;;;;4967704;28;20038;-84
2021/11/02 06:44:18;;;;;;;3.85;3.65;;;9.80;78.60;;;;;;4968439;28;20038;-85
2021/11/02 06:47:30;;;;;;;4.10;3.90;;;9.80;78.50;;;;;;4964770;28;20043;-85
2021/11/02 07:10:57;;;;;;;5.03;4.05;;;9.90;78.50;;;;;;4972058;28;20031;-85
2021/11/02 08:47:47;;;;;;;4.53;4.22;;;11.40;77.40;;;;;;4971117;28;20034;-84
2021/11/02 08:50:17;;;;;;;3.83;3.63;;;11.50;77.40;;;;;;4973269;28;20042;-85
2021/11/02 08:52:50;;;;;;;3.90;3.70;;;11.50;77.40;;;;;;4970459;28;20515;-84
2021/11/02 08:55:16;;;;;;;3.80;3.60;;;11.60;77.40;;;;;;4970617;28;20041;-85
2021/11/02 08:57:43;;;;;;;4.20;4.00;;;11.60;77.40;;;;;;4970114;28;20047;-89
2021/11/02 09:00:09;;;;;;;4.18;3.97;;;11.60;77.50;;;;;;4955410;28;20482;-81
2021/11/02 09:02:36;;;;;;;4.00;3.80;;;11.70;77.50;;;;;;4974373;28;20509;-81
2021/11/02 09:05:11;;;;;;;3.72;3.53;;;11.80;77.70;;;;;;4972707;28;20472;-81
2021/11/02 09:07:37;;;;;;;4.32;4.13;;;12.00;77.50;;;;;;4971893;28;20034;-81
2021/11/02 09:10:20;;;;;;;4.18;3.97;;;12.20;77.30;;;;;;4968507;28;20027;-81
2021/11/02 09:12:51;;;;;;;4.10;3.90;;;12.40;77.10;;;;;;4971240;28;20413;-81
2021/11/02 09:15:21;;;;;;;4.43;4.22;;;12.60;76.90;;;;;;4970729;28;20031;-81
2021/11/02 09:17:48;;;;;;;4.28;4.07;;;12.90;76.70;;;;;;4973300;28;20508;-81
2021/11/02 09:20:15;;;;;;;4.18;3.97;;;13.00;76.50;;;;;;4971199;28;20039;-81
2021/11/02 09:22:41;;;;;;;3.80;3.60;;;13.20;76.50;;;;;;4973441;28;20030;-81
2021/11/02 09:25:08;;;;;;;3.50;3.30;;;13.30;76.40;;;;;;4970601;28;20023;-82
2021/11/02 09:27:35;;;;;;;3.97;3.78;;;13.30;76.20;;;;;;4971046;28;20035;-85
2021/11/02 09:30:03;;;;;;;3.88;3.67;;;13.30;76.30;;;;;;4970248;28;20027;-84
2021/11/02 09:32:29;;;;;;;3.72;3.53;;;13.20;76.50;;;;;;4972684;28;20070;-86
2021/11/02 09:34:56;;;;;;;3.92;3.72;;;13.10;76.70;;;;;;4977042;28;20046;-82
2021/11/02 09:37:32;;;;;;;4.00;3.80;;;13.10;76.90;;;;;;4973747;28;20043;-88
2021/11/02 09:40:01;;;;;;;4.82;4.50;;;13.10;77.00;;;;;;4970891;28;20042;-91
2021/11/02 09:42:53;;;;;;;13.60;5.57;;;13.00;76.90;;;;;;4977800;28;20050;-89
2021/11/02 09:45:46;;;;;;;4.20;4.00;;;13.00;77.10;;;;;;4970606;28;20522;-81
2021/11/02 09:48:30;;;;;;;4.35;3.95;;;13.00;77.20;;;;;;4956662;28;20034;-82
2021/11/02 09:51:18;;;;;;;3.40;3.30;;;12.90;77.20;;;;;;4967198;28;20392;-81
2021/11/02 09:54:10;;;;;;;4.25;4.00;;;12.90;77.20;;;;;;4967665;28;20055;-83
2021/11/02 09:56:51;;;;;;;3.75;3.55;;;12.90;77.20;;;;;;4972527;28;20056;-82
2021/11/02 09:59:17;;;;;;;3.97;3.78;;;12.90;77.30;;;;;;4961714;28;20027;-83
2021/11/02 10:02:03;;;;;;;4.75;4.18;;;12.90;77.30;;;;;;4967166;28;20042;-84
2021/11/02 10:04:59;;;;;;;4.13;3.92;;;12.90;77.30;;;;;;4965374;28;20023;-84
2021/11/02 10:07:38;;;;;;;5.68;3.90;;;12.90;77.30;;;;;;4963494;28;20051;-83
2021/11/02 10:10:10;;;;;;;3.80;3.60;;;12.90;77.20;;;;;;4974989;28;20416;-84
2021/11/02 10:13:03;;;;;;;3.55;3.38;;;12.90;77.20;;;;;;4971850;28;20050;-83
2021/11/02 10:15:54;;;;;;;3.80;3.60;;;12.90;77.30;;;;;;4959435;28;20031;-82
2021/11/02 10:18:27;;;;;;;3.75;3.55;;;12.90;77.40;;;;;;4971121;28;20038;-85
2021/11/02 10:20:55;;;;;;;4.05;3.85;;;12.90;77.30;;;;;;4967662;28;20035;-86
2021/11/02 10:23:46;;;;;;;3.90;3.70;;;12.90;77.30;;;;;;4958225;28;20590;-84
2021/11/02 10:26:23;;;;;;;4.07;3.88;;;12.90;77.30;;;;;;4971059;28;20043;-84
2021/11/02 10:29:39;;;;;;;3.78;3.58;;;12.90;77.30;;;;;;4959995;28;20035;-83
2021/11/02 10:32:15;;;;;;;3.45;3.35;;;12.90;77.30;;;;;;4972066;28;20062;-85
2021/11/02 10:34:41;;;;;;;3.90;3.70;;;12.90;77.30;;;;;;4967144;28;20061;-83
2021/11/02 10:37:44;;;;;;;4.30;4.10;;;12.90;77.30;;;;;;4966910;28;20456;-85
2021/11/02 10:40:22;;;;;;;3.67;3.47;;;12.90;77.30;;;;;;4961893;28;20396;-80
2021/11/02 10:42:54;;;;;;;3.80;3.60;;;12.90;77.20;;;;;;4970795;28;20464;-84
2021/11/02 10:45:22;;;;;;;3.90;3.70;;;12.90;77.20;;;;;;4983387;28;20548;-83
2021/11/02 10:48:07;;;;;;;4.70;3.97;;;12.90;77.20;;;;;;4968947;28;20038;-83
2021/11/02 10:50:37;;;;;;;4.13;3.92;;;13.00;77.30;;;;;;4969729;28;20035;-86
2021/11/02 10:53:07;;;;;;;4.23;4.03;;;13.00;77.20;;;;;;4969542;28;20045;-86
2021/11/02 10:55:49;;;;;;;4.10;3.90;;;13.10;77.20;;;;;;4962100;28;20488;-86
2021/11/02 10:58:48;;;;;;;4.15;3.95;;;13.10;77.10;;;;;;4973754;28;20039;-86
2021/11/02 11:01:14;;;;;;;3.97;3.78;;;13.20;77.10;;;;;;4970498;28;20039;-86
2021/11/02 11:03:41;;;;;;;4.10;3.90;;;13.20;76.90;;;;;;4960687;28;20031;-87
2021/11/02 11:06:09;;;;;;;3.95;3.75;;;13.30;76.90;;;;;;4967931;28;20054;-85
2021/11/02 11:08:37;;;;;;;3.90;3.70;;;13.30;76.80;;;;;;4970285;28;20058;-90
2021/11/02 11:11:05;;;;;;;3.83;3.63;;;13.40;76.80;;;;;;4968831;28;20038;-92
2021/11/02 11:13:32;;;;;;;4.60;4.30;;;13.40;76.80;;;;;;4972361;28;20050;-90
2021/11/02 11:16:02;;;;;;;3.85;3.65;;;13.40;76.80;;;;;;4969018;28;20534;-87
2021/11/02 11:18:44;;;;;;;5.00;4.70;;;13.40;76.80;;;;;;4967394;28;20057;-86
2021/11/02 11:21:11;;;;;;;3.90;3.70;;;13.50;76.80;;;;;;4960942;28;20388;-87
2021/11/02 11:23:37;;;;;;;4.05;3.85;;;13.60;77.50;;;;;;4972675;28;20034;-87
2021/11/02 11:26:05;;;;;;;3.60;3.42;;;13.60;76.70;;;;;;4971301;28;20387;-87
2021/11/02 11:28:38;;;;;;;3.78;3.58;;;13.70;76.60;;;;;;4972377;28;20498;-84
2021/11/02 11:31:04;;;;;;;3.80;3.60;;;13.70;76.50;;;;;;4968383;28;20035;-84
2021/11/02 11:33:31;;;;;;;4.13;3.92;;;13.70;76.50;;;;;;4985945;28;20035;-86
2021/11/02 11:36:06;;;;;;;4.10;3.88;;;13.80;76.60;;;;;;4958062;28;20050;-82
2021/11/02 11:38:35;;;;;;;4.05;3.85;;;13.80;76.50;;;;;;4960622;28;20470;-85
2021/11/02 11:41:03;;;;;;;3.83;3.63;;;13.80;76.40;;;;;;4982563;28;20034;-86
2021/11/02 11:43:30;;;;;;;3.92;3.72;;;13.90;76.50;;;;;;4970125;28;20035;-87
2021/11/02 11:45:56;;;;;;;4.00;3.80;;;13.90;76.40;;;;;;4970226;28;20510;-82
2021/11/02 11:48:24;;;;;;;4.03;3.83;;;13.90;76.30;;;;;;4971146;28;20146;-87
2021/11/02 11:50:50;;;;;;;4.30;4.10;;;13.90;76.40;;;;;;4973925;28;20463;-87
2021/11/02 11:53:17;;;;;;;4.20;4.00;;;13.90;76.40;;;;;;4970713;28;20051;-86
2021/11/02 11:55:49;;;;;;;4.60;4.40;;;13.90;76.40;;;;;;4970179;28;20211;-87
2021/11/02 11:58:23;;;;;;;4.57;4.38;;;13.90;76.30;;;;;;4987192;28;20506;-89
2021/11/02 12:00:54;;;;;;;4.40;4.20;;;14.00;76.30;;;;;;4976041;28;20055;-86
2021/11/02 12:03:44;;;;;;;4.40;4.20;;;14.00;76.30;;;;;;4974518;28;20054;-88
2021/11/02 12:06:16;;;;;;;4.50;4.30;;;14.00;76.30;;;;;;4979743;28;20046;-87
2021/11/02 12:08:53;;;;;;;4.72;4.53;;;14.10;76.30;;;;;;4977004;28;20480;-82
2021/11/02 12:11:21;;;;;;;4.55;4.35;;;14.10;76.20;;;;;;4989713;28;20035;-81
2021/11/02 12:13:48;;;;;;;4.53;4.32;;;14.10;76.10;;;;;;4963997;28;20051;-82
2021/11/02 12:16:22;;;;;;;4.35;4.15;;;14.10;76.20;;;;;;4966345;28;20035;-81
2021/11/02 12:19:13;;;;;;;5.00;4.70;;;14.10;76.10;;;;;;4967617;28;20035;-80
2021/11/02 12:21:44;;;;;;;4.50;4.30;;;14.10;76.10;;;;;;4971624;28;20039;-80
2021/11/02 12:24:13;;;;;;;4.60;4.40;;;14.20;76.10;;;;;;4964281;28;20038;-80
2021/11/02 12:26:47;;;;;;;4.45;4.25;;;14.20;76.10;;;;;;4964709;28;20043;-80
2021/11/02 12:29:24;;;;;;;4.50;4.30;;;14.10;76.10;;;;;;4969490;28;20035;-80
2021/11/02 12:31:59;;;;;;;4.40;4.20;;;14.10;76.10;;;;;;4966060;28;20035;-80
2021/11/02 12:34:27;;;;;;;4.20;4.00;;;14.10;76.10;;;;;;4967103;28;20400;-80
2021/11/02 12:36:54;;;;;;;4.20;4.00;;;14.10;76.10;;;;;;4966093;28;20023;-80
2021/11/02 12:39:27;;;;;;;4.82;4.63;;;14.10;76.10;;;;;;4968374;28;20545;-80
2021/11/02 12:41:58;;;;;;;4.30;4.10;;;14.10;76.20;;;;;;4986353;28;20034;-79
2021/11/02 12:44:28;;;;;;;4.40;4.20;;;14.10;76.10;;;;;;4963271;28;20043;-80
2021/11/02 12:46:55;;;;;;;4.50;4.30;;;14.00;76.10;;;;;;4970833;28;20043;-80
2021/11/02 12:49:44;;;;;;;4.60;4.40;;;14.00;76.10;;;;;;4954137;28;20046;-80
2021/11/02 12:52:11;;;;;;;4.60;4.40;;;14.00;76.10;;;;;;4971359;28;20030;-80
2021/11/02 12:54:37;;;;;;;4.60;4.40;;;14.00;76.10;;;;;;4971148;28;20053;-80
2021/11/02 12:57:09;;;;;;;4.50;4.30;;;14.00;76.10;;;;;;4954809;28;20061;-80
2021/11/02 12:59:40;;;;;;;4.50;4.30;;;14.00;76.10;;;;;;4969888;28;20051;-80
2021/11/02 13:02:17;;;;;;;4.30;4.10;;;13.90;76.00;;;;;;4971511;28;20035;-81
2021/11/02 13:04:45;;;;;;;3.95;3.75;;;13.90;76.00;;;;;;4970253;28;20019;-80
2021/11/02 13:07:12;;;;;;;4.22;4.03;;;13.90;76.00;;;;;;4968402;28;20539;-81
2021/11/02 13:09:38;;;;;;;4.80;4.50;;;13.90;76.00;;;;;;4967675;28;20031;-80
2021/11/02 13:12:06;;;;;;;4.30;4.10;;;13.90;76.00;;;;;;4954063;28;20054;-80
2021/11/02 13:14:38;;;;;;;4.68;4.47;;;13.90;76.00;;;;;;4964734;28;20035;-80
2021/11/02 13:17:05;;;;;;;4.53;4.32;;;13.90;76.00;;;;;;4971371;28;20046;-81
2021/11/02 13:19:39;;;;;;;4.22;4.03;;;13.90;76.00;;;;;;4960582;28;20038;-80
2021/11/02 13:22:18;;;;;;;15.50;4.47;;;13.90;75.90;;;;;;4959109;28;20372;-80
2021/11/02 13:25:18;;;;;;;4.22;4.03;;;13.90;76.00;;;;;;4970211;28;20034;-80
2021/11/02 13:27:45;;;;;;;4.88;4.68;;;13.90;75.90;;;;;;4964933;28;20039;-79
2021/11/02 13:30:37;;;;;;;4.20;4.00;;;13.80;75.90;;;;;;4961953;28;20090;-80
2021/11/02 13:33:04;;;;;;;4.43;4.20;;;13.80;75.90;;;;;;4969835;28;20043;-80
2021/11/02 13:35:57;;;;;;;5.00;4.75;;;13.80;75.90;;;;;;4968769;28;20395;-80
2021/11/02 13:38:30;;;;;;;4.40;4.20;;;13.80;75.80;;;;;;4972970;28;20042;-80
2021/11/02 13:41:00;;;;;;;4.30;4.10;;;13.80;75.80;;;;;;4958871;28;20369;-80
2021/11/02 13:43:31;;;;;;;4.35;4.15;;;13.80;75.90;;;;;;4973586;28;20038;-80
2021/11/02 13:45:57;;;;;;;5.50;5.00;;;13.80;75.90;;;;;;4965147;28;20068;-80
2021/11/02 13:48:23;;;;;;;4.80;4.60;;;13.80;75.80;;;;;;4955987;28;20640;-80
2021/11/02 13:50:49;;;;;;;5.30;5.00;;;13.80;75.80;;;;;;4962429;28;20488;-80
2021/11/02 13:53:15;;;;;;;4.60;4.40;;;13.80;76.00;;;;;;4968877;28;20054;-79
2021/11/02 13:55:41;;;;;;;4.32;4.13;;;13.80;75.90;;;;;;4963231;28;20027;-80
2021/11/02 13:58:07;;;;;;;4.60;4.40;;;13.80;75.90;;;;;;4958691;28;20038;-81
2021/11/02 14:00:33;;;;;;;4.38;4.18;;;13.80;75.80;;;;;;4969089;28;20031;-81
2021/11/02 14:03:01;;;;;;;4.40;4.20;;;13.80;75.90;;;;;;4955297;28;20027;-81
2021/11/02 14:05:27;;;;;;;5.10;4.70;;;13.80;75.90;;;;;;4969685;28;20510;-80
2021/11/02 14:07:53;;;;;;;5.50;5.20;;;13.80;75.90;;;;;;4969781;28;20030;-82
2021/11/02 14:10:19;;;;;;;4.47;4.28;;;13.80;75.90;;;;;;4976226;28;20039;-81
2021/11/02 14:12:54;;;;;;;21.23;4.80;;;13.80;75.90;;;;;;4968197;28;20520;-81
2021/11/02 14:15:26;;;;;;;4.53;4.32;;;13.80;76.00;;;;;;4967318;28;20034;-81
2021/11/02 14:17:52;;;;;;;4.43;4.22;;;13.80;76.00;;;;;;4970618;28;20042;-80
2021/11/02 14:20:38;;;;;;;4.50;4.30;;;13.80;76.00;;;;;;4968455;28;20035;-81
2021/11/02 14:23:06;;;;;;;4.90;4.70;;;13.80;76.00;;;;;;4964879;28;20027;-80
2021/11/02 14:25:35;;;;;;;4.80;4.40;;;13.80;76.00;;;;;;4966286;28;20042;-81
2021/11/02 14:28:02;;;;;;;4.30;4.10;;;13.70;75.90;;;;;;4970898;28;20501;-83
2021/11/02 14:30:31;;;;;;;4.68;4.47;;;13.70;75.90;;;;;;4966848;28;20027;-83
2021/11/02 14:33:04;;;;;;;4.57;4.38;;;13.70;76.00;;;;;;4966999;28;20089;-84
2021/11/02 14:35:50;;;;;;;4.53;4.32;;;13.70;76.00;;;;;;4966607;28;20051;-83
2021/11/02 14:38:19;;;;;;;4.93;4.63;;;13.70;76.00;;;;;;4963138;28;20423;-85
2021/11/02 14:40:48;;;;;;;4.30;4.10;;;13.70;76.00;;;;;;4962235;28;20396;-84
2021/11/02 14:43:15;;;;;;;5.43;4.90;;;13.70;76.10;;;;;;4961218;28;20027;-84
2021/11/02 14:45:51;;;;;;;4.65;4.45;;;13.70;76.10;;;;;;4967025;28;20034;-84
2021/11/02 14:48:29;;;;;;;4.82;4.63;;;13.70;76.10;;;;;;4962802;28;20023;-83
2021/11/02 14:50:56;;;;;;;4.93;4.72;;;13.70;76.10;;;;;;4967594;28;20476;-84
2021/11/02 14:53:29;;;;;;;5.15;4.85;;;13.70;76.10;;;;;;4967047;28;20058;-83
2021/11/02 14:56:01;;;;;;;5.25;5.05;;;13.70;76.10;;;;;;4961641;28;20039;-84
2021/11/02 14:58:40;;;;;;;5.60;5.20;;;13.70;76.10;;;;;;4964908;28;20041;-83
2021/11/02 15:01:24;;;;;;;5.38;5.07;;;13.60;76.10;;;;;;4965089;28;20026;-83
2021/11/02 15:04:06;;;;;;;4.57;4.38;;;13.60;76.10;;;;;;4964505;28;20038;-85
2021/11/02 15:06:35;;;;;;;5.32;4.93;;;13.60;76.10;;;;;;4965217;28;20050;-85
2021/11/02 15:09:07;;;;;;;5.28;5.07;;;13.70;76.10;;;;;;4968871;28;20049;-84
2021/11/02 15:11:33;;;;;;;4.85;4.65;;;13.60;76.10;;;;;;4967019;28;20500;-86
2021/11/02 15:14:02;;;;;;;4.80;4.60;;;13.60;76.20;;;;;;4971752;28;20484;-85
2021/11/02 15:16:29;;;;;;;4.70;4.50;;;13.60;76.20;;;;;;4961147;28;20380;-85
2021/11/02 15:19:03;;;;;;;4.97;4.45;;;13.60;76.20;;;;;;4965900;28;20033;-86
2021/11/02 15:21:40;;;;;;;4.47;4.28;;;13.50;76.20;;;;;;4980694;28;20073;-84
2021/11/02 15:24:28;;;;;;;4.43;4.22;;;13.60;76.30;;;;;;4957913;28;20427;-85
2021/11/02 15:26:57;;;;;;;3.97;3.78;;;13.50;76.30;;;;;;4970528;28;20029;-83
2021/11/02 15:29:28;;;;;;;4.50;4.30;;;13.50;76.30;;;;;;4961990;28;20057;-86
2021/11/02 15:32:11;;;;;;;3.90;3.70;;;13.50;76.30;;;;;;4967047;28;20042;-84
2021/11/02 15:34:53;;;;;;;4.30;4.10;;;13.60;76.40;;;;;;4961494;28;20063;-84
2021/11/02 15:37:30;;;;;;;4.20;4.00;;;13.60;76.40;;;;;;4968058;28;20038;-90
2021/11/02 15:39:58;;;;;;;4.18;3.97;;;13.50;76.30;;;;;;4969422;28;20263;-89
2021/11/02 15:42:32;;;;;;;4.55;4.15;;;13.50;76.40;;;;;;4975058;28;20486;-89
2021/11/02 15:45:00;;;;;;;7.78;4.35;;;13.50;76.40;;;;;;4960089;28;20054;-88
2021/11/02 15:47:27;;;;;;;3.80;3.60;;;13.50;76.50;;;;;;4973548;28;20037;-87
2021/11/02 15:50:14;;;;;;;4.07;3.88;;;13.40;76.40;;;;;;4953924;28;20034;-90
2021/11/02 15:52:41;;;;;;;4.05;3.85;;;13.40;76.50;;;;;;4963510;28;20043;-88
2021/11/02 15:55:12;;;;;;;3.85;3.65;;;13.30;76.70;;;;;;4958172;28;20057;-85
2021/11/02 15:57:42;;;;;;;3.80;3.60;;;13.20;76.80;;;;;;4967243;28;20026;-88
2021/11/02 16:00:11;;;;;;;3.67;3.47;;;13.20;76.90;;;;;;4959265;28;20039;-90
2021/11/02 16:02:38;;;;;;;3.80;3.60;;;13.10;77.00;;;;;;4968436;28;20050;-88
2021/11/02 16:05:28;;;;;;;3.72;3.53;;;13.10;77.10;;;;;;4954190;28;20042;-85
2021/11/02 16:07:55;;;;;;;3.80;3.60;;;13.00;77.10;;;;;;4964692;28;20503;-84
2021/11/02 16:10:26;;;;;;;4.05;3.75;;;13.00;77.10;;;;;;4969587;28;20034;-85
2021/11/02 16:12:52;;;;;;;3.65;3.45;;;12.90;77.20;;;;;;4966419;28;20047;-82
2021/11/02 16:15:19;;;;;;;3.75;3.55;;;12.90;77.30;;;;;;4968966;28;20039;-83
2021/11/02 16:17:46;;;;;;;4.05;3.63;;;12.80;77.40;;;;;;4972868;28;20034;-82
2021/11/02 16:20:22;;;;;;;3.88;3.67;;;12.80;77.40;;;;;;4971225;28;20042;-83
2021/11/02 16:22:56;;;;;;;3.67;3.47;;;12.70;77.50;;;;;;4966625;28;20034;-82
2021/11/02 16:25:23;;;;;;;3.40;3.30;;;12.70;77.50;;;;;;4972053;28;20031;-84
2021/11/02 16:27:57;;;;;;;3.70;3.50;;;12.60;77.50;;;;;;4953109;28;20087;-81
2021/11/02 16:30:48;;;;;;;3.70;3.50;;;12.60;77.50;;;;;;4965902;28;20210;-82
2021/11/02 16:33:15;;;;;;;3.90;3.70;;;12.60;77.60;;;;;;4973244;28;20038;-82
2021/11/02 16:35:46;;;;;;;3.63;3.42;;;12.60;77.60;;;;;;4958855;28;20048;-83
2021/11/02 16:38:24;;;;;;;;;;;12.60;77.70;;;;;;4969119;28;20047;-83
2021/11/02 16:41:01;;;;;;;3.92;3.72;;;12.50;77.60;;;;;;4967411;28;19917;-81
2021/11/02 16:43:36;;;;;;;4.75;4.45;;;12.50;77.50;;;;;;4977008;28;20388;-82
2021/11/02 16:46:03;;;;;;;6.68;6.10;;;12.50;77.60;;;;;;4965769;28;20045;-81
2021/11/02 16:48:45;;;;;;;3.40;3.20;;;12.40;77.60;;;;;;4970706;28;20039;-82
2021/11/02 16:51:13;;;;;;;3.67;3.40;;;12.40;77.70;;;;;;4955048;28;20039;-80
2021/11/02 16:53:39;;;;;;;3.65;3.45;;;12.40;77.70;;;;;;4970626;28;20042;-81
2021/11/02 16:56:20;;;;;;;3.70;3.50;;;12.40;77.70;;;;;;4968864;28;20034;-82
2021/11/02 16:58:52;;;;;;;4.00;3.70;;;12.40;77.70;;;;;;4961655;28;20516;-81
2021/11/02 17:01:22;;;;;;;3.45;3.30;;;12.40;77.70;;;;;;4971434;28;20047;-83
2021/11/02 17:03:49;;;;;;;3.53;3.38;;;12.40;77.80;;;;;;4980107;28;20031;-81
2021/11/02 17:06:23;;;;;;;3.33;3.22;;;12.40;77.70;;;;;;4960353;28;20046;-82
2021/11/02 17:09:02;;;;;;;3.30;3.20;;;12.40;77.70;;;;;;4956834;28;20030;-82
2021/11/02 17:11:29;;;;;;;3.22;3.13;;;12.40;77.80;;;;;;4970427;28;20037;-82
2021/11/02 17:13:55;;;;;;;3.53;3.33;;;12.40;77.80;;;;;;4961542;28;20397;-82
2021/11/02 17:16:24;;;;;;;2.95;2.85;;;12.30;77.90;;;;;;4976784;28;20036;-83
2021/11/02 17:18:56;;;;;;;3.20;3.10;;;12.30;77.90;;;;;;4962165;28;20481;-83
2021/11/02 17:21:24;;;;;;;4.10;3.80;;;12.30;77.80;;;;;;4968206;28;20027;-82
2021/11/02 17:23:50;;;;;;;4.03;3.83;;;12.30;77.80;;;;;;4967558;28;20034;-85
2021/11/02 17:26:17;;;;;;;3.60;3.40;;;12.20;77.80;;;;;;4970728;28;20034;-83
2021/11/02 17:28:45;;;;;;;4.13;3.83;;;12.20;77.90;;;;;;4969031;28;20065;-81
2021/11/02 17:31:13;;;;;;;5.40;4.95;;;12.20;78.00;;;;;;4967744;28;20423;-81
2021/11/02 17:33:39;;;;;;;5.25;4.75;;;12.10;78.00;;;;;;4965610;28;20058;-81
2021/11/02 17:36:07;;;;;;;4.05;3.85;;;12.10;78.10;;;;;;4969513;28;20047;-82
2021/11/02 17:38:34;;;;;;;3.90;3.70;;;12.10;78.10;;;;;;4968901;28;20027;-81
2021/11/02 17:41:03;;;;;;;5.03;4.40;;;12.10;78.10;;;;;;4972056;28;20034;-83
2021/11/02 17:43:30;;;;;;;3.85;3.65;;;12.10;78.20;;;;;;4957697;28;20078;-85
2021/11/02 17:45:57;;;;;;;4.85;4.50;;;12.10;78.20;;;;;;4958976;28;20035;-84
2021/11/02 17:48:23;;;;;;;4.32;4.13;;;12.10;78.20;;;;;;4966107;28;20361;-81
2021/11/02 17:50:50;;;;;;;4.07;3.88;;;12.10;78.10;;;;;;4964406;28;20031;-82
2021/11/02 17:53:16;;;;;;;3.95;3.75;;;12.10;78.10;;;;;;4965698;28;20038;-82
2021/11/02 17:55:44;;;;;;;4.00;3.80;;;12.20;78.20;;;;;;4963316;28;20491;-82
2021/11/02 17:58:10;;;;;;;4.00;3.80;;;12.10;78.10;;;;;;4959780;28;20039;-82
2021/11/02 18:00:36;;;;;;;4.00;3.80;;;12.10;78.20;;;;;;4969372;28;20404;-81
2021/11/02 18:03:02;;;;;;;5.07;4.78;;;12.10;78.10;;;;;;4971158;28;20448;-89
2021/11/02 18:05:29;;;;;;;5.40;5.00;;;12.10;78.10;;;;;;4973236;28;20495;-85
2021/11/02 18:07:56;;;;;;;5.78;5.38;;;12.10;78.10;;;;;;4971012;28;20038;-87